Flight Track Log - Related Links

Times and Time Zones

All times are in EDT time to prevent confusion due to time zone crossing. See the SWA2236 flight status page for this flight to view local times or setup timezone preferences in your user account.

Time Position Orientation Groundspeed Altitude Reporting Facility
EDT Latitude Longitude Course Direction KTS MPH feet Rate Location/Type
Thu 11:45:13 PM 39.1833 -76.7167 194° South 179 206 1,800  Level Potomac TRACON
Thu 11:46:07 PM 39.1333 -76.7333 194° South 223 257 4,000 2,298 Climbing Potomac TRACON
Thu 11:48:21 PM 39.0992 -76.5678 105° East 220 253 9,000 2,400 Climbing Washington Center
Thu 11:49:22 PM 39.1144 -76.4583 80° East 257 296 11,800 2,951 Climbing Washington Center
Thu 11:50:23 PM 39.1342 -76.3356 78° East 309 356 15,000 3,174 Climbing Washington Center
Thu 11:51:23 PM 39.1619 -76.2047 75° East 349 402 18,200 3,450 Climbing Washington Center
Thu 11:52:23 PM 39.2292 -76.0872 54° Northeast 360 414 21,900 2,773 Climbing Washington Center
Thu 11:53:22 PM 39.2983 -75.9778 51° Northeast 367 422 23,700 1,513 Climbing Washington Center
Thu 11:54:22 PM 39.3736 -75.8600 50° Northeast 397 457 24,900 1,091 Climbing Washington Center
Thu 11:55:23 PM 39.4572 -75.7258 51° Northeast 431 496 25,900 1,100 Climbing Washington Center
Thu 11:56:22 PM 39.5469 -75.5836 51° Northeast 471 542 27,100 1,289 Climbing Washington Center
Thu 11:57:24 PM 39.6342 -75.4381 52° Northeast 498 573 28,500 942 Climbing Washington Center
Thu 11:58:23 PM 39.7256 -75.2894 51° Northeast 516 594 29,000 256 Climbing Washington Center
Thu 11:59:21 PM 39.8147 -75.1458 51° Northeast 516 594 29,000  Level Washington Center
Fri 12:00:40 AM 39.9311 -74.9478 52° Northeast 553 636 29,000  Level New York Center
Fri 12:01:38 AM 40.0197 -74.7986 52° Northeast 523 602 29,000  Level New York Center
Fri 12:02:39 AM 40.1014 -74.6622 52° Northeast 514 592 29,000  Level New York Center
Fri 12:03:38 AM 40.2342 -74.5528 32° Northeast 514 592 29,000  Level New York Center
Fri 12:04:41 AM 40.3794 -74.5064 14° North 514 592 29,000  Level New York Center
Fri 12:06:54 AM 40.6889 -74.4108 13° North 516 594 29,000  Level Boston Center
Fri 12:07:54 AM 40.8478 -74.3717 11° North 521 600 29,000  Level Boston Center
Fri 12:08:54 AM 40.9903 -74.3292 13° North 521 600 29,000  Level Boston Center
Fri 12:09:54 AM 41.1181 -74.2861 14° North 527 606 29,000 -350 Level Boston Center
Fri 12:10:54 AM 41.2753 -74.2353 14° North 527 606 28,300 -1,500 Descending Boston Center
Fri 12:11:54 AM 41.4136 -74.1922 13° North 527 606 26,000 -1,500 Descending Boston Center
Fri 12:12:54 AM 41.5161 -74.1617 13° North 503 579 25,300 -2,250 Descending Boston Center
Fri 12:13:54 AM 41.6586 -74.1183 13° North 485 558 21,500 -3,500 Descending Boston Center
Fri 12:14:54 AM 41.7758 -74.0825 13° North 453 521 18,300 -3,300 Descending Boston Center
Fri 12:15:54 AM 41.9056 -74.0411 13° North 431 496 14,900 -3,022 Descending Boston Center
Fri 12:17:09 AM 42.0458 -74.0000 12° North 411 473 11,500 -1,765 Descending Boston Center
Fri 12:18:10 AM 42.1422 -73.9689 13° North 353 406 10,900 -744 Descending Boston Center
Fri 12:19:10 AM 42.2322 -73.9347 16° North 291 335 10,000 -1,289 Descending Boston Center
Fri 12:20:11 AM 42.3097 -73.9028 17° North 294 338 8,300 -1,574 Descending Boston Center
Fri 12:21:12 AM 42.3850 -73.8708 17° North 280 322 6,800 -1,438 Descending Boston Center
Fri 12:22:12 AM 42.4583 -73.8417 16° North 270 311 5,400 -1,488 Descending Boston Center
Fri 12:23:13 AM 42.5256 -73.8119 18° North 263 303 3,800 -1,636 Descending Boston Center
Fri 12:24:13 AM 42.5944 -73.8022 North 245 282 2,100 -942 Descending Boston Center
Fri 12:25:14 AM 42.6528 -73.8036 359° North 187 215 1,900 -492 Descending Boston Center
Fri 12:26:15 AM 42.6922 -73.8072 356° North 112 129 1,100 -694 Descending Boston Center
Fri 12:27:15 AM 42.7278 -73.8081 359° North 118 136 500 -600 Descending Boston Center
Fri 12:29:00 AM 42.7333 -73.8000 10° North  Level FlightAware Approximate

Login

Don't have an account? Register now (free) for customized features, flight alerts, and more!